sensor_id;sensor_type;location;lat;lon;timestamp;P1;durP1;ratioP1;P2;durP2;ratioP2
56736;SDS011;42618;51.226;4.910;2022-08-19T00:00:03;17.75;;;11.98;;
56736;SDS011;42618;51.226;4.910;2022-08-19T00:02:32;18.48;;;11.93;;
56736;SDS011;42618;51.226;4.910;2022-08-19T00:04:59;14.23;;;11.50;;
56736;SDS011;42618;51.226;4.910;2022-08-19T00:07:26;15.20;;;11.95;;
56736;SDS011;42618;51.226;4.910;2022-08-19T00:09:53;13.88;;;11.07;;
56736;SDS011;42618;51.226;4.910;2022-08-19T00:12:22;14.00;;;11.15;;
56736;SDS011;42618;51.226;4.910;2022-08-19T00:14:49;18.80;;;11.60;;
56736;SDS011;42618;51.226;4.910;2022-08-19T00:17:16;15.70;;;12.02;;
56736;SDS011;42618;51.226;4.910;2022-08-19T00:19:42;13.98;;;11.32;;
56736;SDS011;42618;51.226;4.910;2022-08-19T00:22:09;14.73;;;10.90;;
56736;SDS011;42618;51.226;4.910;2022-08-19T00:24:36;15.07;;;11.15;;
56736;SDS011;42618;51.226;4.910;2022-08-19T00:27:04;14.82;;;10.90;;
56736;SDS011;42618;51.226;4.910;2022-08-19T00:29:51;11.77;;;10.48;;
56736;SDS011;42618;51.226;4.910;2022-08-19T00:32:18;11.57;;;10.18;;
56736;SDS011;42618;51.226;4.910;2022-08-19T00:34:45;17.55;;;11.45;;
56736;SDS011;42618;51.226;4.910;2022-08-19T00:37:12;16.73;;;11.05;;
56736;SDS011;42618;51.226;4.910;2022-08-19T00:39:39;14.48;;;10.05;;
56736;SDS011;42618;51.226;4.910;2022-08-19T00:42:06;16.75;;;11.30;;
56736;SDS011;42618;51.226;4.910;2022-08-19T00:44:33;15.85;;;10.95;;
56736;SDS011;42618;51.226;4.910;2022-08-19T00:46:59;14.95;;;11.27;;
56736;SDS011;42618;51.226;4.910;2022-08-19T00:49:31;16.27;;;11.07;;
56736;SDS011;42618;51.226;4.910;2022-08-19T00:52:09;17.77;;;10.55;;
56736;SDS011;42618;51.226;4.910;2022-08-19T00:54:40;19.80;;;11.80;;
56736;SDS011;42618;51.226;4.910;2022-08-19T00:57:10;16.83;;;11.27;;
56736;SDS011;42618;51.226;4.910;2022-08-19T00:59:42;21.90;;;11.65;;
56736;SDS011;42618;51.226;4.910;2022-08-19T01:02:28;15.05;;;10.98;;
56736;SDS011;42618;51.226;4.910;2022-08-19T01:04:57;15.80;;;11.07;;
56736;SDS011;42618;51.226;4.910;2022-08-19T01:07:25;18.58;;;11.52;;
56736;SDS011;42618;51.226;4.910;2022-08-19T01:09:52;13.02;;;10.20;;
56736;SDS011;42618;51.226;4.910;2022-08-19T01:12:19;16.75;;;11.27;;
56736;SDS011;42618;51.226;4.910;2022-08-19T01:14:46;18.50;;;11.98;;
56736;SDS011;42618;51.226;4.910;2022-08-19T01:17:14;19.98;;;11.75;;
56736;SDS011;42618;51.226;4.910;2022-08-19T01:19:42;16.50;;;12.20;;
56736;SDS011;42618;51.226;4.910;2022-08-19T01:22:19;17.65;;;11.98;;
56736;SDS011;42618;51.226;4.910;2022-08-19T01:24:58;20.13;;;13.52;;
56736;SDS011;42618;51.226;4.910;2022-08-19T01:27:25;21.20;;;14.20;;
56736;SDS011;42618;51.226;4.910;2022-08-19T01:30:05;22.27;;;14.55;;
56736;SDS011;42618;51.226;4.910;2022-08-19T01:32:34;24.27;;;14.95;;
56736;SDS011;42618;51.226;4.910;2022-08-19T01:35:02;22.60;;;15.00;;
56736;SDS011;42618;51.226;4.910;2022-08-19T01:37:40;26.65;;;16.92;;
56736;SDS011;42618;51.226;4.910;2022-08-19T01:40:08;25.60;;;15.90;;
56736;SDS011;42618;51.226;4.910;2022-08-19T01:42:36;24.50;;;16.40;;
56736;SDS011;42618;51.226;4.910;2022-08-19T01:45:03;31.05;;;17.38;;
56736;SDS011;42618;51.226;4.910;2022-08-19T01:47:31;24.73;;;16.88;;
56736;SDS011;42618;51.226;4.910;2022-08-19T01:49:57;24.05;;;17.25;;
56736;SDS011;42618;51.226;4.910;2022-08-19T01:52:24;24.90;;;15.80;;
56736;SDS011;42618;51.226;4.910;2022-08-19T01:54:51;25.73;;;15.07;;
56736;SDS011;42618;51.226;4.910;2022-08-19T01:57:18;23.50;;;15.65;;
56736;SDS011;42618;51.226;4.910;2022-08-19T01:59:44;21.02;;;14.75;;
56736;SDS011;42618;51.226;4.910;2022-08-19T02:02:11;23.07;;;16.00;;
56736;SDS011;42618;51.226;4.910;2022-08-19T02:04:38;24.83;;;16.25;;
56736;SDS011;42618;51.226;4.910;2022-08-19T02:07:05;20.48;;;15.00;;
56736;SDS011;42618;51.226;4.910;2022-08-19T02:09:34;26.83;;;17.27;;
56736;SDS011;42618;51.226;4.910;2022-08-19T02:12:01;28.27;;;17.23;;
56736;SDS011;42618;51.226;4.910;2022-08-19T02:14:28;25.80;;;17.55;;
56736;SDS011;42618;51.226;4.910;2022-08-19T02:16:55;31.60;;;19.33;;
56736;SDS011;42618;51.226;4.910;2022-08-19T02:19:22;37.85;;;21.48;;
56736;SDS011;42618;51.226;4.910;2022-08-19T02:21:48;30.60;;;18.17;;
56736;SDS011;42618;51.226;4.910;2022-08-19T02:24:15;40.65;;;21.23;;
56736;SDS011;42618;51.226;4.910;2022-08-19T02:26:42;38.15;;;21.10;;
56736;SDS011;42618;51.226;4.910;2022-08-19T02:29:09;38.42;;;20.90;;
56736;SDS011;42618;51.226;4.910;2022-08-19T02:31:35;44.63;;;23.35;;
56736;SDS011;42618;51.226;4.910;2022-08-19T02:34:02;31.65;;;18.70;;
56736;SDS011;42618;51.226;4.910;2022-08-19T02:36:29;42.55;;;23.83;;
56736;SDS011;42618;51.226;4.910;2022-08-19T02:38:56;45.45;;;24.75;;
56736;SDS011;42618;51.226;4.910;2022-08-19T02:41:24;47.72;;;25.67;;
56736;SDS011;42618;51.226;4.910;2022-08-19T02:43:54;47.28;;;24.92;;
56736;SDS011;42618;51.226;4.910;2022-08-19T02:46:41;48.40;;;24.73;;
56736;SDS011;42618;51.226;4.910;2022-08-19T02:49:09;51.78;;;26.23;;
56736;SDS011;42618;51.226;4.910;2022-08-19T02:51:37;46.72;;;24.83;;
56736;SDS011;42618;51.226;4.910;2022-08-19T02:54:07;48.50;;;25.63;;
56736;SDS011;42618;51.226;4.910;2022-08-19T02:56:35;50.83;;;26.30;;
56736;SDS011;42618;51.226;4.910;2022-08-19T02:59:04;46.33;;;24.48;;
56736;SDS011;42618;51.226;4.910;2022-08-19T03:01:36;46.13;;;25.73;;
56736;SDS011;42618;51.226;4.910;2022-08-19T03:04:06;50.90;;;25.95;;
56736;SDS011;42618;51.226;4.910;2022-08-19T03:06:37;46.30;;;24.40;;
56736;SDS011;42618;51.226;4.910;2022-08-19T03:09:05;53.78;;;26.98;;
56736;SDS011;42618;51.226;4.910;2022-08-19T03:11:32;44.42;;;25.38;;
56736;SDS011;42618;51.226;4.910;2022-08-19T03:14:00;53.15;;;27.45;;
56736;SDS011;42618;51.226;4.910;2022-08-19T03:16:28;53.30;;;27.35;;
56736;SDS011;42618;51.226;4.910;2022-08-19T03:18:59;51.85;;;26.17;;
56736;SDS011;42618;51.226;4.910;2022-08-19T03:21:29;49.33;;;26.95;;
56736;SDS011;42618;51.226;4.910;2022-08-19T03:23:58;50.15;;;24.92;;
56736;SDS011;42618;51.226;4.910;2022-08-19T03:26:26;57.47;;;26.73;;
56736;SDS011;42618;51.226;4.910;2022-08-19T03:28:53;54.50;;;26.75;;
56736;SDS011;42618;51.226;4.910;2022-08-19T03:31:24;51.30;;;26.88;;
56736;SDS011;42618;51.226;4.910;2022-08-19T03:34:13;51.58;;;26.33;;
56736;SDS011;42618;51.226;4.910;2022-08-19T03:36:46;52.13;;;27.00;;
56736;SDS011;42618;51.226;4.910;2022-08-19T03:39:14;54.47;;;27.35;;
56736;SDS011;42618;51.226;4.910;2022-08-19T03:41:42;48.00;;;25.33;;
56736;SDS011;42618;51.226;4.910;2022-08-19T03:44:14;49.17;;;26.25;;
56736;SDS011;42618;51.226;4.910;2022-08-19T03:46:45;51.63;;;26.90;;
56736;SDS011;42618;51.226;4.910;2022-08-19T03:49:14;48.88;;;24.95;;
56736;SDS011;42618;51.226;4.910;2022-08-19T03:51:43;55.35;;;27.10;;
56736;SDS011;42618;51.226;4.910;2022-08-19T03:54:11;51.15;;;27.85;;
56736;SDS011;42618;51.226;4.910;2022-08-19T03:56:40;49.55;;;26.02;;
56736;SDS011;42618;51.226;4.910;2022-08-19T03:59:09;49.63;;;26.88;;
56736;SDS011;42618;51.226;4.910;2022-08-19T04:01:37;51.40;;;26.98;;
56736;SDS011;42618;51.226;4.910;2022-08-19T04:04:04;50.63;;;26.20;;
56736;SDS011;42618;51.226;4.910;2022-08-19T04:06:33;52.65;;;27.15;;
56736;SDS011;42618;51.226;4.910;2022-08-19T04:09:06;48.65;;;24.08;;
56736;SDS011;42618;51.226;4.910;2022-08-19T04:11:43;46.05;;;22.80;;
56736;SDS011;42618;51.226;4.910;2022-08-19T04:14:14;53.38;;;26.08;;
56736;SDS011;42618;51.226;4.910;2022-08-19T04:16:43;45.60;;;23.85;;
56736;SDS011;42618;51.226;4.910;2022-08-19T04:21:37;51.55;;;25.95;;
56736;SDS011;42618;51.226;4.910;2022-08-19T04:24:04;39.95;;;21.52;;
56736;SDS011;42618;51.226;4.910;2022-08-19T04:26:33;46.13;;;24.48;;
56736;SDS011;42618;51.226;4.910;2022-08-19T04:29:04;44.83;;;24.60;;
56736;SDS011;42618;51.226;4.910;2022-08-19T04:31:38;50.88;;;25.55;;
56736;SDS011;42618;51.226;4.910;2022-08-19T04:34:08;56.67;;;27.30;;
56736;SDS011;42618;51.226;4.910;2022-08-19T04:36:40;55.20;;;25.92;;
56736;SDS011;42618;51.226;4.910;2022-08-19T04:39:14;56.92;;;26.58;;
56736;SDS011;42618;51.226;4.910;2022-08-19T04:41:43;44.75;;;23.83;;
56736;SDS011;42618;51.226;4.910;2022-08-19T04:44:30;50.80;;;25.25;;
56736;SDS011;42618;51.226;4.910;2022-08-19T04:47:01;51.25;;;24.73;;
56736;SDS011;42618;51.226;4.910;2022-08-19T04:49:36;55.60;;;24.92;;
56736;SDS011;42618;51.226;4.910;2022-08-19T04:52:03;48.10;;;22.10;;
56736;SDS011;42618;51.226;4.910;2022-08-19T04:54:30;51.22;;;24.75;;
56736;SDS011;42618;51.226;4.910;2022-08-19T04:57:05;48.85;;;24.40;;
56736;SDS011;42618;51.226;4.910;2022-08-19T04:59:35;44.33;;;23.38;;
56736;SDS011;42618;51.226;4.910;2022-08-19T05:02:03;52.85;;;24.67;;
56736;SDS011;42618;51.226;4.910;2022-08-19T05:04:30;49.95;;;24.40;;
56736;SDS011;42618;51.226;4.910;2022-08-19T05:09:26;45.30;;;21.88;;
56736;SDS011;42618;51.226;4.910;2022-08-19T05:12:14;51.58;;;22.63;;
56736;SDS011;42618;51.226;4.910;2022-08-19T05:14:41;41.50;;;21.05;;
56736;SDS011;42618;51.226;4.910;2022-08-19T05:17:09;44.92;;;23.35;;
56736;SDS011;42618;51.226;4.910;2022-08-19T05:19:53;49.10;;;24.05;;
56736;SDS011;42618;51.226;4.910;2022-08-19T05:22:39;40.72;;;21.88;;
56736;SDS011;42618;51.226;4.910;2022-08-19T05:25:08;42.05;;;21.48;;
56736;SDS011;42618;51.226;4.910;2022-08-19T05:27:39;39.63;;;19.50;;
56736;SDS011;42618;51.226;4.910;2022-08-19T05:30:08;44.65;;;20.55;;
56736;SDS011;42618;51.226;4.910;2022-08-19T05:32:35;37.53;;;19.55;;
56736;SDS011;42618;51.226;4.910;2022-08-19T05:35:03;46.20;;;21.65;;
56736;SDS011;42618;51.226;4.910;2022-08-19T05:37:30;41.80;;;20.10;;
56736;SDS011;42618;51.226;4.910;2022-08-19T05:39:57;43.33;;;20.67;;
56736;SDS011;42618;51.226;4.910;2022-08-19T05:42:24;48.28;;;21.88;;
56736;SDS011;42618;51.226;4.910;2022-08-19T05:44:52;51.35;;;21.48;;
56736;SDS011;42618;51.226;4.910;2022-08-19T05:47:19;70.03;;;22.23;;
56736;SDS011;42618;51.226;4.910;2022-08-19T05:49:46;50.15;;;21.83;;
56736;SDS011;42618;51.226;4.910;2022-08-19T05:52:16;46.60;;;19.65;;
56736;SDS011;42618;51.226;4.910;2022-08-19T05:54:51;42.85;;;20.67;;
56736;SDS011;42618;51.226;4.910;2022-08-19T05:57:21;42.33;;;21.05;;
56736;SDS011;42618;51.226;4.910;2022-08-19T05:59:49;45.55;;;18.90;;
56736;SDS011;42618;51.226;4.910;2022-08-19T06:02:27;41.67;;;19.13;;
56736;SDS011;42618;51.226;4.910;2022-08-19T06:04:55;37.50;;;17.75;;
56736;SDS011;42618;51.226;4.910;2022-08-19T06:07:21;36.08;;;15.70;;
56736;SDS011;42618;51.226;4.910;2022-08-19T06:09:48;35.80;;;18.40;;
56736;SDS011;42618;51.226;4.910;2022-08-19T06:12:26;36.97;;;18.15;;
56736;SDS011;42618;51.226;4.910;2022-08-19T06:14:57;40.47;;;19.05;;
56736;SDS011;42618;51.226;4.910;2022-08-19T06:17:27;35.42;;;17.92;;
56736;SDS011;42618;51.226;4.910;2022-08-19T06:19:57;41.35;;;18.33;;
56736;SDS011;42618;51.226;4.910;2022-08-19T06:22:25;37.83;;;18.17;;
56736;SDS011;42618;51.226;4.910;2022-08-19T06:24:52;32.90;;;15.63;;
56736;SDS011;42618;51.226;4.910;2022-08-19T06:27:20;34.28;;;16.88;;
56736;SDS011;42618;51.226;4.910;2022-08-19T06:29:48;35.05;;;16.98;;
56736;SDS011;42618;51.226;4.910;2022-08-19T06:32:15;34.97;;;16.67;;
56736;SDS011;42618;51.226;4.910;2022-08-19T06:34:44;30.15;;;15.88;;
56736;SDS011;42618;51.226;4.910;2022-08-19T06:37:11;27.48;;;13.88;;
56736;SDS011;42618;51.226;4.910;2022-08-19T06:39:39;31.13;;;15.75;;
56736;SDS011;42618;51.226;4.910;2022-08-19T06:42:08;32.17;;;14.98;;
56736;SDS011;42618;51.226;4.910;2022-08-19T06:44:38;27.80;;;13.90;;
56736;SDS011;42618;51.226;4.910;2022-08-19T06:47:09;30.95;;;14.40;;
56736;SDS011;42618;51.226;4.910;2022-08-19T06:49:48;28.75;;;13.68;;
56736;SDS011;42618;51.226;4.910;2022-08-19T06:52:15;26.33;;;12.77;;
56736;SDS011;42618;51.226;4.910;2022-08-19T06:54:43;25.75;;;12.43;;
56736;SDS011;42618;51.226;4.910;2022-08-19T06:57:22;27.83;;;13.82;;
56736;SDS011;42618;51.226;4.910;2022-08-19T06:59:50;31.17;;;13.32;;
56736;SDS011;42618;51.226;4.910;2022-08-19T07:02:17;28.33;;;13.20;;
56736;SDS011;42618;51.226;4.910;2022-08-19T07:04:45;27.98;;;13.35;;
56736;SDS011;42618;51.226;4.910;2022-08-19T07:07:13;27.27;;;12.77;;
56736;SDS011;42618;51.226;4.910;2022-08-19T07:09:46;29.27;;;13.02;;
56736;SDS011;42618;51.226;4.910;2022-08-19T07:12:23;27.58;;;12.90;;
56736;SDS011;42618;51.226;4.910;2022-08-19T07:17:19;30.73;;;12.68;;
56736;SDS011;42618;51.226;4.910;2022-08-19T07:19:47;35.35;;;14.65;;
56736;SDS011;42618;51.226;4.910;2022-08-19T07:22:14;30.08;;;13.43;;
56736;SDS011;42618;51.226;4.910;2022-08-19T07:24:42;27.38;;;11.25;;
56736;SDS011;42618;51.226;4.910;2022-08-19T07:27:16;29.38;;;11.98;;
56736;SDS011;42618;51.226;4.910;2022-08-19T07:29:49;32.97;;;12.80;;
56736;SDS011;42618;51.226;4.910;2022-08-19T07:32:22;31.45;;;12.02;;
56736;SDS011;42618;51.226;4.910;2022-08-19T07:34:52;29.13;;;11.23;;
56736;SDS011;42618;51.226;4.910;2022-08-19T07:37:18;29.52;;;11.93;;
56736;SDS011;42618;51.226;4.910;2022-08-19T07:39:45;26.05;;;10.32;;
56736;SDS011;42618;51.226;4.910;2022-08-19T07:42:12;28.10;;;11.95;;
56736;SDS011;42618;51.226;4.910;2022-08-19T07:44:40;23.58;;;11.68;;
56736;SDS011;42618;51.226;4.910;2022-08-19T07:47:15;22.10;;;8.75;;
56736;SDS011;42618;51.226;4.910;2022-08-19T07:50:04;26.25;;;10.30;;
56736;SDS011;42618;51.226;4.910;2022-08-19T07:52:34;28.92;;;11.30;;
56736;SDS011;42618;51.226;4.910;2022-08-19T07:55:03;23.55;;;11.07;;
56736;SDS011;42618;51.226;4.910;2022-08-19T07:57:31;26.70;;;11.52;;
56736;SDS011;42618;51.226;4.910;2022-08-19T07:59:58;27.35;;;11.40;;
56736;SDS011;42618;51.226;4.910;2022-08-19T08:02:25;25.33;;;10.80;;
56736;SDS011;42618;51.226;4.910;2022-08-19T08:04:52;22.27;;;10.13;;
56736;SDS011;42618;51.226;4.910;2022-08-19T08:07:38;27.77;;;11.23;;
56736;SDS011;42618;51.226;4.910;2022-08-19T08:10:23;23.17;;;11.20;;
56736;SDS011;42618;51.226;4.910;2022-08-19T08:12:51;25.25;;;11.40;;
56736;SDS011;42618;51.226;4.910;2022-08-19T08:15:36;21.35;;;10.65;;
56736;SDS011;42618;51.226;4.910;2022-08-19T08:18:08;25.65;;;11.02;;
56736;SDS011;42618;51.226;4.910;2022-08-19T08:20:35;27.75;;;11.77;;
56736;SDS011;42618;51.226;4.910;2022-08-19T08:23:02;22.30;;;9.40;;
56736;SDS011;42618;51.226;4.910;2022-08-19T08:25:48;28.40;;;10.85;;
56736;SDS011;42618;51.226;4.910;2022-08-19T08:28:15;21.23;;;10.52;;
56736;SDS011;42618;51.226;4.910;2022-08-19T08:30:43;19.58;;;10.88;;
56736;SDS011;42618;51.226;4.910;2022-08-19T08:33:12;20.80;;;10.38;;
56736;SDS011;42618;51.226;4.910;2022-08-19T08:35:41;18.55;;;9.07;;
56736;SDS011;42618;51.226;4.910;2022-08-19T08:38:08;17.65;;;9.77;;
56736;SDS011;42618;51.226;4.910;2022-08-19T08:43:11;19.48;;;9.00;;
56736;SDS011;42618;51.226;4.910;2022-08-19T08:46:03;22.05;;;10.05;;
56736;SDS011;42618;51.226;4.910;2022-08-19T08:49:02;17.10;;;9.02;;
56736;SDS011;42618;51.226;4.910;2022-08-19T08:51:46;22.67;;;9.65;;
56736;SDS011;42618;51.226;4.910;2022-08-19T08:54:25;15.77;;;9.23;;
56736;SDS011;42618;51.226;4.910;2022-08-19T08:57:07;16.55;;;9.02;;
56736;SDS011;42618;51.226;4.910;2022-08-19T08:59:47;16.60;;;8.52;;
56736;SDS011;42618;51.226;4.910;2022-08-19T09:02:18;19.73;;;8.45;;
56736;SDS011;42618;51.226;4.910;2022-08-19T09:04:45;18.10;;;8.20;;
56736;SDS011;42618;51.226;4.910;2022-08-19T09:07:22;16.40;;;8.32;;
56736;SDS011;42618;51.226;4.910;2022-08-19T09:10:27;14.95;;;8.13;;
56736;SDS011;42618;51.226;4.910;2022-08-19T09:15:57;18.42;;;9.00;;
56736;SDS011;42618;51.226;4.910;2022-08-19T09:18:39;16.48;;;8.90;;
56736;SDS011;42618;51.226;4.910;2022-08-19T09:23:35;17.48;;;8.32;;
56736;SDS011;42618;51.226;4.910;2022-08-19T09:26:07;12.55;;;5.63;;
56736;SDS011;42618;51.226;4.910;2022-08-19T09:28:37;18.27;;;7.75;;
56736;SDS011;42618;51.226;4.910;2022-08-19T09:31:04;14.50;;;8.90;;
56736;SDS011;42618;51.226;4.910;2022-08-19T09:33:31;17.48;;;8.48;;
56736;SDS011;42618;51.226;4.910;2022-08-19T09:36:01;19.35;;;8.55;;
56736;SDS011;42618;51.226;4.910;2022-08-19T09:38:34;14.57;;;7.68;;
56736;SDS011;42618;51.226;4.910;2022-08-19T09:41:10;12.73;;;7.38;;
56736;SDS011;42618;51.226;4.910;2022-08-19T09:43:41;13.35;;;6.15;;
56736;SDS011;42618;51.226;4.910;2022-08-19T09:46:13;13.07;;;7.30;;
56736;SDS011;42618;51.226;4.910;2022-08-19T09:48:43;16.60;;;7.53;;
56736;SDS011;42618;51.226;4.910;2022-08-19T09:51:15;15.15;;;7.30;;
56736;SDS011;42618;51.226;4.910;2022-08-19T09:53:47;11.70;;;7.18;;
56736;SDS011;42618;51.226;4.910;2022-08-19T09:56:21;12.98;;;7.45;;
56736;SDS011;42618;51.226;4.910;2022-08-19T09:58:50;14.93;;;8.32;;
56736;SDS011;42618;51.226;4.910;2022-08-19T10:01:18;10.50;;;5.53;;
56736;SDS011;42618;51.226;4.910;2022-08-19T10:03:51;13.27;;;7.53;;
56736;SDS011;42618;51.226;4.910;2022-08-19T10:06:21;11.20;;;7.53;;
56736;SDS011;42618;51.226;4.910;2022-08-19T10:09:10;15.23;;;7.47;;
56736;SDS011;42618;51.226;4.910;2022-08-19T10:11:39;14.82;;;8.20;;
56736;SDS011;42618;51.226;4.910;2022-08-19T10:14:19;15.07;;;7.85;;
56736;SDS011;42618;51.226;4.910;2022-08-19T10:16:48;13.35;;;7.75;;
56736;SDS011;42618;51.226;4.910;2022-08-19T10:19:18;12.32;;;7.95;;
56736;SDS011;42618;51.226;4.910;2022-08-19T10:21:51;13.32;;;7.57;;
56736;SDS011;42618;51.226;4.910;2022-08-19T10:24:25;12.75;;;6.82;;
56736;SDS011;42618;51.226;4.910;2022-08-19T10:26:54;13.68;;;9.15;;
56736;SDS011;42618;51.226;4.910;2022-08-19T10:29:25;17.23;;;9.80;;
56736;SDS011;42618;51.226;4.910;2022-08-19T10:32:02;16.15;;;10.07;;
56736;SDS011;42618;51.226;4.910;2022-08-19T10:34:38;16.15;;;9.90;;
56736;SDS011;42618;51.226;4.910;2022-08-19T10:37:15;16.95;;;9.05;;
56736;SDS011;42618;51.226;4.910;2022-08-19T10:39:54;14.68;;;9.07;;
56736;SDS011;42618;51.226;4.910;2022-08-19T10:42:21;15.87;;;9.07;;
56736;SDS011;42618;51.226;4.910;2022-08-19T10:44:48;13.75;;;8.57;;
56736;SDS011;42618;51.226;4.910;2022-08-19T10:47:17;14.13;;;9.18;;
56736;SDS011;42618;51.226;4.910;2022-08-19T10:49:54;14.82;;;8.23;;
56736;SDS011;42618;51.226;4.910;2022-08-19T10:52:42;15.10;;;7.43;;
56736;SDS011;42618;51.226;4.910;2022-08-19T10:55:20;17.23;;;7.88;;
56736;SDS011;42618;51.226;4.910;2022-08-19T10:58:13;15.88;;;7.40;;
56736;SDS011;42618;51.226;4.910;2022-08-19T11:00:43;15.55;;;7.03;;
56736;SDS011;42618;51.226;4.910;2022-08-19T11:03:17;10.68;;;6.00;;
56736;SDS011;42618;51.226;4.910;2022-08-19T11:05:44;12.73;;;6.88;;
56736;SDS011;42618;51.226;4.910;2022-08-19T11:08:11;12.43;;;6.78;;
56736;SDS011;42618;51.226;4.910;2022-08-19T11:10:53;9.95;;;6.05;;
56736;SDS011;42618;51.226;4.910;2022-08-19T11:15:58;11.80;;;6.00;;
56736;SDS011;42618;51.226;4.910;2022-08-19T11:18:34;11.02;;;6.30;;
56736;SDS011;42618;51.226;4.910;2022-08-19T11:21:18;8.95;;;5.75;;
56736;SDS011;42618;51.226;4.910;2022-08-19T11:23:55;11.52;;;6.18;;
56736;SDS011;42618;51.226;4.910;2022-08-19T11:26:23;12.57;;;5.30;;
56736;SDS011;42618;51.226;4.910;2022-08-19T11:28:51;8.50;;;5.18;;
56736;SDS011;42618;51.226;4.910;2022-08-19T11:31:21;10.82;;;5.40;;
56736;SDS011;42618;51.226;4.910;2022-08-19T11:33:58;9.15;;;5.93;;
56736;SDS011;42618;51.226;4.910;2022-08-19T11:36:26;15.07;;;5.95;;
56736;SDS011;42618;51.226;4.910;2022-08-19T11:38:54;15.57;;;7.13;;
56736;SDS011;42618;51.226;4.910;2022-08-19T11:41:21;13.55;;;6.63;;
56736;SDS011;42618;51.226;4.910;2022-08-19T11:43:50;13.95;;;6.45;;
56736;SDS011;42618;51.226;4.910;2022-08-19T11:46:19;12.93;;;7.07;;
56736;SDS011;42618;51.226;4.910;2022-08-19T11:48:47;9.52;;;6.03;;
56736;SDS011;42618;51.226;4.910;2022-08-19T11:51:20;13.30;;;8.10;;
56736;SDS011;42618;51.226;4.910;2022-08-19T11:53:48;12.00;;;8.75;;
56736;SDS011;42618;51.226;4.910;2022-08-19T11:56:17;12.35;;;8.50;;
56736;SDS011;42618;51.226;4.910;2022-08-19T11:58:45;14.70;;;8.68;;
56736;SDS011;42618;51.226;4.910;2022-08-19T12:01:12;10.80;;;8.00;;
56736;SDS011;42618;51.226;4.910;2022-08-19T12:03:42;17.80;;;9.60;;
56736;SDS011;42618;51.226;4.910;2022-08-19T12:06:12;12.73;;;8.85;;
56736;SDS011;42618;51.226;4.910;2022-08-19T12:08:41;11.95;;;8.15;;
56736;SDS011;42618;51.226;4.910;2022-08-19T12:11:10;15.15;;;9.27;;
56736;SDS011;42618;51.226;4.910;2022-08-19T12:13:38;17.85;;;9.13;;
56736;SDS011;42618;51.226;4.910;2022-08-19T12:16:13;13.32;;;8.48;;
56736;SDS011;42618;51.226;4.910;2022-08-19T12:18:42;9.95;;;7.75;;
56736;SDS011;42618;51.226;4.910;2022-08-19T12:21:13;10.45;;;7.60;;
56736;SDS011;42618;51.226;4.910;2022-08-19T12:23:40;13.65;;;7.57;;
56736;SDS011;42618;51.226;4.910;2022-08-19T12:28:36;12.80;;;8.23;;
56736;SDS011;42618;51.226;4.910;2022-08-19T12:33:30;15.48;;;9.80;;
56736;SDS011;42618;51.226;4.910;2022-08-19T12:36:05;16.08;;;8.57;;
56736;SDS011;42618;51.226;4.910;2022-08-19T12:38:33;13.52;;;8.68;;
56736;SDS011;42618;51.226;4.910;2022-08-19T12:43:29;16.95;;;8.10;;
56736;SDS011;42618;51.226;4.910;2022-08-19T12:45:56;15.13;;;8.30;;
56736;SDS011;42618;51.226;4.910;2022-08-19T12:48:23;13.30;;;8.07;;
56736;SDS011;42618;51.226;4.910;2022-08-19T12:50:59;12.18;;;8.48;;
56736;SDS011;42618;51.226;4.910;2022-08-19T12:53:31;14.00;;;8.05;;
56736;SDS011;42618;51.226;4.910;2022-08-19T12:55:59;13.05;;;6.70;;
56736;SDS011;42618;51.226;4.910;2022-08-19T12:58:27;13.90;;;6.90;;
56736;SDS011;42618;51.226;4.910;2022-08-19T13:00:55;9.02;;;5.57;;
56736;SDS011;42618;51.226;4.910;2022-08-19T13:03:21;8.32;;;5.75;;
56736;SDS011;42618;51.226;4.910;2022-08-19T13:05:53;8.23;;;5.55;;
56736;SDS011;42618;51.226;4.910;2022-08-19T13:08:20;11.52;;;6.13;;
56736;SDS011;42618;51.226;4.910;2022-08-19T13:10:46;10.50;;;5.40;;
56736;SDS011;42618;51.226;4.910;2022-08-19T13:13:13;10.82;;;5.65;;
56736;SDS011;42618;51.226;4.910;2022-08-19T13:15:41;8.18;;;3.28;;
56736;SDS011;42618;51.226;4.910;2022-08-19T13:18:09;5.80;;;3.97;;
56736;SDS011;42618;51.226;4.910;2022-08-19T13:20:37;4.70;;;3.33;;
56736;SDS011;42618;51.226;4.910;2022-08-19T13:23:07;7.18;;;3.40;;
56736;SDS011;42618;51.226;4.910;2022-08-19T13:28:02;10.38;;;3.10;;
56736;SDS011;42618;51.226;4.910;2022-08-19T13:30:30;4.30;;;2.50;;
56736;SDS011;42618;51.226;4.910;2022-08-19T13:33:15;4.78;;;1.90;;
56736;SDS011;42618;51.226;4.910;2022-08-19T13:38:12;3.30;;;1.73;;
56736;SDS011;42618;51.226;4.910;2022-08-19T13:40:40;2.90;;;1.73;;
56736;SDS011;42618;51.226;4.910;2022-08-19T13:45:48;4.05;;;1.85;;
56736;SDS011;42618;51.226;4.910;2022-08-19T13:48:16;4.35;;;2.13;;
56736;SDS011;42618;51.226;4.910;2022-08-19T13:50:44;3.63;;;1.90;;
56736;SDS011;42618;51.226;4.910;2022-08-19T13:53:13;3.63;;;1.80;;
56736;SDS011;42618;51.226;4.910;2022-08-19T13:55:41;2.63;;;2.00;;
56736;SDS011;42618;51.226;4.910;2022-08-19T13:58:09;2.63;;;1.48;;
56736;SDS011;42618;51.226;4.910;2022-08-19T14:00:38;5.57;;;1.65;;
56736;SDS011;42618;51.226;4.910;2022-08-19T14:03:09;3.22;;;1.40;;
56736;SDS011;42618;51.226;4.910;2022-08-19T14:05:35;5.55;;;1.38;;
56736;SDS011;42618;51.226;4.910;2022-08-19T14:08:03;2.55;;;1.55;;
56736;SDS011;42618;51.226;4.910;2022-08-19T14:10:30;1.80;;;1.00;;
56736;SDS011;42618;51.226;4.910;2022-08-19T14:12:58;2.75;;;1.02;;
56736;SDS011;42618;51.226;4.910;2022-08-19T14:15:27;3.13;;;1.05;;
56736;SDS011;42618;51.226;4.910;2022-08-19T14:17:54;1.75;;;0.90;;
56736;SDS011;42618;51.226;4.910;2022-08-19T14:20:21;5.90;;;1.30;;
56736;SDS011;42618;51.226;4.910;2022-08-19T14:22:51;4.10;;;1.25;;
56736;SDS011;42618;51.226;4.910;2022-08-19T14:25:20;3.10;;;1.17;;
56736;SDS011;42618;51.226;4.910;2022-08-19T14:27:48;2.80;;;1.70;;
56736;SDS011;42618;51.226;4.910;2022-08-19T14:30:17;2.15;;;1.55;;
56736;SDS011;42618;51.226;4.910;2022-08-19T14:32:51;3.47;;;1.42;;
56736;SDS011;42618;51.226;4.910;2022-08-19T14:35:18;5.43;;;1.30;;
56736;SDS011;42618;51.226;4.910;2022-08-19T14:37:45;2.30;;;0.93;;
56736;SDS011;42618;51.226;4.910;2022-08-19T14:40:13;1.33;;;1.05;;
56736;SDS011;42618;51.226;4.910;2022-08-19T14:42:42;4.65;;;1.02;;
56736;SDS011;42618;51.226;4.910;2022-08-19T14:45:10;1.77;;;0.95;;
56736;SDS011;42618;51.226;4.910;2022-08-19T14:47:37;1.42;;;0.82;;
56736;SDS011;42618;51.226;4.910;2022-08-19T14:50:09;2.90;;;0.85;;
56736;SDS011;42618;51.226;4.910;2022-08-19T14:52:43;1.92;;;1.00;;
56736;SDS011;42618;51.226;4.910;2022-08-19T14:55:09;1.83;;;1.13;;
56736;SDS011;42618;51.226;4.910;2022-08-19T14:57:36;1.53;;;1.23;;
56736;SDS011;42618;51.226;4.910;2022-08-19T15:00:03;3.50;;;1.43;;
56736;SDS011;42618;51.226;4.910;2022-08-19T15:02:30;3.00;;;1.05;;
56736;SDS011;42618;51.226;4.910;2022-08-19T15:05:00;1.45;;;0.60;;
56736;SDS011;42618;51.226;4.910;2022-08-19T15:07:28;4.93;;;0.55;;
56736;SDS011;42618;51.226;4.910;2022-08-19T15:12:22;3.38;;;0.75;;
56736;SDS011;42618;51.226;4.910;2022-08-19T15:14:50;2.67;;;0.75;;
56736;SDS011;42618;51.226;4.910;2022-08-19T15:17:21;0.88;;;0.75;;
56736;SDS011;42618;51.226;4.910;2022-08-19T15:20:09;2.38;;;1.02;;
56736;SDS011;42618;51.226;4.910;2022-08-19T15:22:38;3.40;;;1.90;;